sensor_id;sensor_type;location;lat;lon;timestamp;temperature;humidity
12374;DHT22;6251;51.762;8.660;2023-02-19T00:05:24;9.00;99.90
12374;DHT22;6251;51.762;8.660;2023-02-19T02:07:19;9.30;99.90
12374;DHT22;6251;51.762;8.660;2023-02-19T03:50:25;9.20;99.90
12374;DHT22;6251;51.762;8.660;2023-02-19T05:01:29;8.70;99.90
12374;DHT22;6251;51.762;8.660;2023-02-19T05:11:30;8.80;99.90
12374;DHT22;6251;51.762;8.660;2023-02-19T05:21:30;8.70;99.90
12374;DHT22;6251;51.762;8.660;2023-02-19T05:31:31;8.70;99.90
12374;DHT22;6251;51.762;8.660;2023-02-19T05:41:33;8.70;99.90
12374;DHT22;6251;51.762;8.660;2023-02-19T05:51:33;8.70;99.90
12374;DHT22;6251;51.762;8.660;2023-02-19T06:01:34;8.60;99.90
12374;DHT22;6251;51.762;8.660;2023-02-19T06:11:35;8.60;99.90
12374;DHT22;6251;51.762;8.660;2023-02-19T06:21:36;8.60;99.90
12374;DHT22;6251;51.762;8.660;2023-02-19T06:31:36;8.60;99.90
12374;DHT22;6251;51.762;8.660;2023-02-19T06:41:37;8.50;99.90
12374;DHT22;6251;51.762;8.660;2023-02-19T06:51:38;8.50;99.90
12374;DHT22;6251;51.762;8.660;2023-02-19T07:01:39;8.40;99.90
12374;DHT22;6251;51.762;8.660;2023-02-19T07:11:40;8.40;99.90
12374;DHT22;6251;51.762;8.660;2023-02-19T07:21:41;8.40;99.90
12374;DHT22;6251;51.762;8.660;2023-02-19T07:31:42;8.50;99.90
12374;DHT22;6251;51.762;8.660;2023-02-19T07:41:42;8.50;99.90
12374;DHT22;6251;51.762;8.660;2023-02-19T07:51:43;8.60;99.90
12374;DHT22;6251;51.762;8.660;2023-02-19T08:01:44;8.50;99.90
12374;DHT22;6251;51.762;8.660;2023-02-19T08:12:03;7.60;99.90
12374;DHT22;6251;51.762;8.660;2023-02-19T08:22:22;7.20;99.90
12374;DHT22;6251;51.762;8.660;2023-02-19T08:32:23;7.10;99.90
12374;DHT22;6251;51.762;8.660;2023-02-19T08:42:23;7.20;99.90
12374;DHT22;6251;51.762;8.660;2023-02-19T08:52:24;7.20;99.90
12374;DHT22;6251;51.762;8.660;2023-02-19T09:02:25;7.20;99.90
12374;DHT22;6251;51.762;8.660;2023-02-19T09:12:25;7.20;99.90
12374;DHT22;6251;51.762;8.660;2023-02-19T09:22:26;7.20;99.90
12374;DHT22;6251;51.762;8.660;2023-02-19T09:32:29;7.20;99.90
12374;DHT22;6251;51.762;8.660;2023-02-19T09:42:31;7.00;99.90
12374;DHT22;6251;51.762;8.660;2023-02-19T10:02:42;7.10;99.90
12374;DHT22;6251;51.762;8.660;2023-02-19T10:12:46;7.30;99.90
12374;DHT22;6251;51.762;8.660;2023-02-19T10:22:56;7.60;99.90
12374;DHT22;6251;51.762;8.660;2023-02-19T10:33:12;7.40;99.90
12374;DHT22;6251;51.762;8.660;2023-02-19T10:43:25;7.10;99.90
12374;DHT22;6251;51.762;8.660;2023-02-19T10:53:40;7.30;99.90
12374;DHT22;6251;51.762;8.660;2023-02-19T11:03:42;7.50;99.90
12374;DHT22;6251;51.762;8.660;2023-02-19T11:13:42;7.50;99.90
12374;DHT22;6251;51.762;8.660;2023-02-19T11:34:30;7.30;99.90
12374;DHT22;6251;51.762;8.660;2023-02-19T11:54:55;7.40;99.90
12374;DHT22;6251;51.762;8.660;2023-02-19T12:05:17;7.50;99.90
12374;DHT22;6251;51.762;8.660;2023-02-19T12:25:41;7.50;99.90
12374;DHT22;6251;51.762;8.660;2023-02-19T12:36:07;7.90;99.90
12374;DHT22;6251;51.762;8.660;2023-02-19T12:46:38;7.90;99.90
12374;DHT22;6251;51.762;8.660;2023-02-19T12:56:49;7.90;99.90
12374;DHT22;6251;51.762;8.660;2023-02-19T13:17:54;8.10;99.90
12374;DHT22;6251;51.762;8.660;2023-02-19T13:28:18;7.80;99.90
12374;DHT22;6251;51.762;8.660;2023-02-19T13:38:21;8.00;99.90
12374;DHT22;6251;51.762;8.660;2023-02-19T14:08:55;8.40;99.90
12374;DHT22;6251;51.762;8.660;2023-02-19T14:18:56;8.70;99.90
12374;DHT22;6251;51.762;8.660;2023-02-19T14:28:58;8.60;99.90
12374;DHT22;6251;51.762;8.660;2023-02-19T14:49:25;8.10;99.90
12374;DHT22;6251;51.762;8.660;2023-02-19T14:59:29;7.90;99.90
12374;DHT22;6251;51.762;8.660;2023-02-19T15:09:39;7.60;99.90
12374;DHT22;6251;51.762;8.660;2023-02-19T15:19:42;7.50;99.90
12374;DHT22;6251;51.762;8.660;2023-02-19T15:29:49;7.40;99.90
12374;DHT22;6251;51.762;8.660;2023-02-19T15:40:12;7.30;99.90
12374;DHT22;6251;51.762;8.660;2023-02-19T15:50:16;7.30;99.90
12374;DHT22;6251;51.762;8.660;2023-02-19T16:00:54;7.20;99.90
12374;DHT22;6251;51.762;8.660;2023-02-19T16:10:58;7.30;99.90
12374;DHT22;6251;51.762;8.660;2023-02-19T16:21:00;7.20;99.90
12374;DHT22;6251;51.762;8.660;2023-02-19T16:31:05;7.20;99.90
12374;DHT22;6251;51.762;8.660;2023-02-19T16:41:13;7.20;99.90
12374;DHT22;6251;51.762;8.660;2023-02-19T16:51:33;7.20;99.90
12374;DHT22;6251;51.762;8.660;2023-02-19T17:01:35;7.10;99.90
12374;DHT22;6251;51.762;8.660;2023-02-19T17:11:36;7.20;99.90
12374;DHT22;6251;51.762;8.660;2023-02-19T17:21:37;7.10;99.90
12374;DHT22;6251;51.762;8.660;2023-02-19T17:31:37;7.00;99.90
12374;DHT22;6251;51.762;8.660;2023-02-19T17:41:38;7.00;99.90
12374;DHT22;6251;51.762;8.660;2023-02-19T17:51:38;7.00;99.90
12374;DHT22;6251;51.762;8.660;2023-02-19T18:01:39;6.90;99.90
12374;DHT22;6251;51.762;8.660;2023-02-19T18:11:43;6.80;99.90
12374;DHT22;6251;51.762;8.660;2023-02-19T18:32:13;6.80;99.90
12374;DHT22;6251;51.762;8.660;2023-02-19T18:42:14;6.80;99.90
12374;DHT22;6251;51.762;8.660;2023-02-19T18:52:16;6.80;99.90
12374;DHT22;6251;51.762;8.660;2023-02-19T19:02:19;6.60;99.90
12374;DHT22;6251;51.762;8.660;2023-02-19T19:12:20;6.40;99.90
12374;DHT22;6251;51.762;8.660;2023-02-19T19:22:21;6.40;99.90
12374;DHT22;6251;51.762;8.660;2023-02-19T19:32:22;6.40;99.90
12374;DHT22;6251;51.762;8.660;2023-02-19T19:42:23;6.40;99.90
12374;DHT22;6251;51.762;8.660;2023-02-19T19:52:23;6.30;99.90
12374;DHT22;6251;51.762;8.660;2023-02-19T20:02:24;6.30;99.90
12374;DHT22;6251;51.762;8.660;2023-02-19T20:12:25;6.30;99.90
12374;DHT22;6251;51.762;8.660;2023-02-19T20:22:30;6.30;99.90
12374;DHT22;6251;51.762;8.660;2023-02-19T20:32:31;6.40;99.90
12374;DHT22;6251;51.762;8.660;2023-02-19T20:42:32;6.40;99.90
12374;DHT22;6251;51.762;8.660;2023-02-19T20:52:33;6.40;99.90
12374;DHT22;6251;51.762;8.660;2023-02-19T21:02:33;6.40;99.90
12374;DHT22;6251;51.762;8.660;2023-02-19T21:12:34;6.40;99.90
12374;DHT22;6251;51.762;8.660;2023-02-19T21:22:35;6.30;99.90
12374;DHT22;6251;51.762;8.660;2023-02-19T21:32:36;6.30;99.90
12374;DHT22;6251;51.762;8.660;2023-02-19T21:42:36;6.20;99.90
12374;DHT22;6251;51.762;8.660;2023-02-19T21:52:37;6.20;99.90
